createdAt,value
2016-12-27T00:00:25.128Z,52.05
2016-12-27T00:00:52.950Z,51.78
2016-12-27T00:01:20.729Z,51.76
2016-12-27T00:01:48.529Z,51.98
2016-12-27T00:02:16.345Z,51.88
2016-12-27T00:02:44.135Z,51.88
2016-12-27T00:03:12.002Z,51.68
2016-12-27T00:03:39.795Z,51.98
2016-12-27T00:04:07.685Z,51.98
2016-12-27T00:04:35.483Z,51.98
2016-12-27T00:05:03.385Z,51.98
2016-12-27T00:05:31.207Z,51.95
2016-12-27T00:05:58.956Z,51.88
2016-12-27T00:06:26.697Z,52.17
2016-12-27T00:06:54.463Z,52.34
2016-12-27T00:07:22.271Z,52.54
2016-12-27T00:07:50.347Z,52.64
2016-12-27T00:08:18.233Z,53.13
2016-12-27T00:08:46.047Z,53.22
2016-12-27T00:09:13.859Z,53.22
2016-12-27T00:09:41.643Z,53.13
2016-12-27T00:10:09.428Z,53.22
2016-12-27T00:10:37.216Z,53.42
2016-12-27T00:11:04.977Z,53.42
2016-12-27T00:11:32.820Z,53.22
2016-12-27T00:12:00.598Z,53.52
2016-12-27T00:12:28.372Z,53.32
2016-12-27T00:12:56.473Z,53.42
2016-12-27T00:13:24.283Z,53.42
2016-12-27T00:13:52.122Z,53.03
2016-12-27T00:14:19.934Z,52.93
2016-12-27T00:14:47.695Z,53.22
2016-12-27T00:15:15.434Z,53.42
2016-12-27T00:15:43.273Z,53.52
2016-12-27T00:16:11.046Z,53.52
2016-12-27T00:16:38.828Z,53.32
2016-12-27T00:17:06.589Z,53.42
2016-12-27T00:17:34.424Z,53.32
2016-12-27T00:18:02.512Z,53.52
2016-12-27T00:18:30.257Z,53.52
2016-12-27T00:18:58.046Z,53.71
2016-12-27T00:19:25.852Z,53.81
2016-12-27T00:19:53.727Z,53.81
2016-12-27T00:20:21.500Z,53.61
2016-12-27T00:20:49.258Z,53.52
2016-12-27T00:21:17.074Z,53.71
2016-12-27T00:21:44.845Z,53.58
2016-12-27T00:22:12.619Z,53.52
2016-12-27T00:22:40.484Z,53.61
2016-12-27T00:23:08.357Z,53.61
2016-12-27T00:23:36.118Z,53.42
2016-12-27T00:24:03.836Z,53.81
2016-12-27T00:24:31.710Z,53.71
2016-12-27T00:24:59.597Z,54.07
2016-12-27T00:25:27.503Z,54.2
2016-12-27T00:25:55.367Z,54.17
2016-12-27T00:26:23.172Z,53.81
2016-12-27T00:26:50.977Z,53.91
2016-12-27T00:27:18.715Z,53.81
2016-12-27T00:27:46.520Z,53.52
2016-12-27T00:28:14.636Z,53.71
2016-12-27T00:28:42.418Z,54.1
2016-12-27T00:29:10.221Z,54
2016-12-27T00:29:38.092Z,53.81
2016-12-27T00:30:05.902Z,54.1
2016-12-27T00:30:33.709Z,54.1
2016-12-27T00:31:01.488Z,53.91
2016-12-27T00:31:29.305Z,54.2
2016-12-27T00:31:57.091Z,54
2016-12-27T00:32:24.935Z,54.69
2016-12-27T00:32:52.700Z,54.17
2016-12-27T00:33:20.653Z,54.66
2016-12-27T00:33:48.601Z,54.56
2016-12-27T00:34:16.411Z,54.56
2016-12-27T00:34:44.139Z,54.88
2016-12-27T00:35:11.955Z,54.75
2016-12-27T00:35:39.742Z,55.05
2016-12-27T00:36:07.621Z,54.36
2016-12-27T00:36:35.433Z,54.27
2016-12-27T00:37:03.203Z,54.17
2016-12-27T00:37:31.007Z,54.46
2016-12-27T00:37:58.772Z,54.56
2016-12-27T00:38:26.825Z,54.56
2016-12-27T00:38:54.584Z,54.46
2016-12-27T00:39:22.390Z,54.56
2016-12-27T00:39:50.222Z,54.66
2016-12-27T00:40:18.013Z,54.95
2016-12-27T00:40:45.785Z,54.66
2016-12-27T00:41:13.571Z,54.75
2016-12-27T00:41:41.335Z,54.85
2016-12-27T00:42:09.077Z,54.95
2016-12-27T00:42:36.830Z,54.95
2016-12-27T00:43:04.610Z,55.15
2016-12-27T00:43:32.681Z,55.24
2016-12-27T00:44:00.489Z,54.85
2016-12-27T00:44:28.306Z,55.54
2016-12-27T00:44:56.105Z,55.93
2016-12-27T00:45:23.895Z,55.73
2016-12-27T00:45:51.673Z,55.41
2016-12-27T00:46:19.473Z,55.71
2016-12-27T00:46:47.340Z,55.51
2016-12-27T00:47:15.061Z,56.68
2016-12-27T00:47:42.971Z,56.38
2016-12-27T00:48:10.788Z,56.68
2016-12-27T00:48:38.735Z,56.29
2016-12-27T00:49:06.522Z,55.8
2016-12-27T00:49:34.282Z,56
2016-12-27T00:50:02.025Z,56.1
2016-12-27T00:50:29.801Z,56.2
2016-12-27T00:50:57.579Z,56.1
2016-12-27T00:51:25.331Z,56.1
2016-12-27T00:51:53.101Z,56
2016-12-27T00:52:20.821Z,56.29
2016-12-27T00:52:48.588Z,56.1
2016-12-27T00:53:16.407Z,55.9
2016-12-27T00:53:44.551Z,56.2
2016-12-27T00:54:12.256Z,56.48
2016-12-27T00:54:40.060Z,56.1
2016-12-27T00:55:07.866Z,56.1
2016-12-27T00:55:35.604Z,55.9
2016-12-27T00:56:03.399Z,56.1
2016-12-27T00:56:31.195Z,55.9
2016-12-27T00:56:59.000Z,56
2016-12-27T00:57:26.785Z,56
2016-12-27T00:57:54.572Z,55.9
2016-12-27T00:58:22.377Z,55.9
2016-12-27T00:58:50.231Z,56.2
2016-12-27T00:59:18.075Z,56.2
2016-12-27T00:59:45.884Z,56
2016-12-27T01:00:13.661Z,56.38
2016-12-27T01:00:41.438Z,56.1
2016-12-27T01:01:09.267Z,56.1
2016-12-27T01:01:37.037Z,56.1
2016-12-27T01:02:04.880Z,56.29
2016-12-27T01:02:32.695Z,56
2016-12-27T01:03:00.491Z,55.61
2016-12-27T01:03:28.423Z,56.1
2016-12-27T01:03:56.488Z,56
2016-12-27T01:04:24.306Z,56.12
2016-12-27T01:04:52.105Z,56.2
2016-12-27T01:05:19.879Z,56.1
2016-12-27T01:05:47.664Z,56
2016-12-27T01:06:15.484Z,56.1
2016-12-27T01:06:43.300Z,56.58
2016-12-27T01:07:11.074Z,56.77
2016-12-27T01:07:38.827Z,56.48
2016-12-27T01:08:06.603Z,56.48
2016-12-27T01:08:34.463Z,57.46
2016-12-27T01:09:02.443Z,56.38
2016-12-27T01:09:30.452Z,56.68
2016-12-27T01:09:58.245Z,56.48
2016-12-27T01:10:26.030Z,56.77
2016-12-27T01:10:53.846Z,56.87
2016-12-27T01:11:21.611Z,57.17
2016-12-27T01:11:49.387Z,57.07
2016-12-27T01:12:17.176Z,57.07
2016-12-27T01:12:44.921Z,57.17
2016-12-27T01:13:12.683Z,57.26
2016-12-27T01:13:40.614Z,57.46
2016-12-27T01:14:08.403Z,57.46
2016-12-27T01:14:36.207Z,57.46
2016-12-27T01:15:04.019Z,57.46
2016-12-27T01:15:31.786Z,57.95
2016-12-27T01:15:59.577Z,57.85
2016-12-27T01:16:27.361Z,57.46
2016-12-27T01:16:55.253Z,57.36
2016-12-27T01:17:23.067Z,57.65
2016-12-27T01:17:50.887Z,58.04
2016-12-27T01:18:18.635Z,58.04
2016-12-27T01:18:46.452Z,58.14
2016-12-27T01:19:14.300Z,57.95
2016-12-27T01:19:42.081Z,58.14
2016-12-27T01:20:09.880Z,58.24
2016-12-27T01:20:37.639Z,58.34
2016-12-27T01:21:05.388Z,58.24
2016-12-27T01:21:33.180Z,58.83
2016-12-27T01:22:00.983Z,58.73
2016-12-27T01:22:28.782Z,59.02
2016-12-27T01:22:56.575Z,59.02
2016-12-27T01:23:24.376Z,59.09
2016-12-27T01:23:52.343Z,59.02
2016-12-27T01:24:20.228Z,59.02
2016-12-27T01:24:48.007Z,58.92
2016-12-27T01:25:15.793Z,59.02
2016-12-27T01:25:43.596Z,58.63
2016-12-27T01:26:11.463Z,59.02
2016-12-27T01:26:39.242Z,59.51
2016-12-27T01:27:07.031Z,59.28
2016-12-27T01:27:34.803Z,59.38
2016-12-27T01:28:02.571Z,59.97
2016-12-27T01:28:30.326Z,59.48
2016-12-27T01:28:58.322Z,59.77
2016-12-27T01:29:26.097Z,59.38
2016-12-27T01:29:53.898Z,59.77
2016-12-27T01:30:21.668Z,59.77
2016-12-27T01:30:49.417Z,60.06
2016-12-27T01:31:17.239Z,59.67
2016-12-27T01:31:44.994Z,59.77
2016-12-27T01:32:12.775Z,59.87
2016-12-27T01:32:40.596Z,59.97
2016-12-27T01:33:08.399Z,60.16
2016-12-27T01:33:36.290Z,60.46
2016-12-27T01:34:04.264Z,60.26
2016-12-27T01:34:32.177Z,60.36
2016-12-27T01:34:59.924Z,60.55
2016-12-27T01:35:27.709Z,60.65
2016-12-27T01:35:55.484Z,60.46
2016-12-27T01:36:23.268Z,60.36
2016-12-27T01:36:51.036Z,60.36
2016-12-27T01:37:18.927Z,60.16
2016-12-27T01:37:46.676Z,59.97
2016-12-27T01:38:14.422Z,59.8
2016-12-27T01:38:42.325Z,60
2016-12-27T01:39:10.206Z,60
2016-12-27T01:39:38.053Z,60
2016-12-27T01:40:05.850Z,59.8
2016-12-27T01:40:33.711Z,60.1
2016-12-27T01:41:01.428Z,60
2016-12-27T01:41:29.189Z,60
2016-12-27T01:41:56.958Z,60
2016-12-27T01:42:24.865Z,60.58
2016-12-27T01:42:52.645Z,60.58
2016-12-27T01:43:20.427Z,60.58
2016-12-27T01:43:48.196Z,60.1
2016-12-27T01:44:20.378Z,60.58
2016-12-27T01:44:48.140Z,60.39
2016-12-27T01:45:15.924Z,60.68
2016-12-27T01:45:43.663Z,60.97
2016-12-27T01:46:11.466Z,60.39
2016-12-27T01:46:39.267Z,60.46
2016-12-27T01:47:07.031Z,60.68
2016-12-27T01:47:34.783Z,60.68
2016-12-27T01:48:02.573Z,60.68
2016-12-27T01:48:30.381Z,61.17
2016-12-27T01:48:58.136Z,61.07
2016-12-27T01:49:26.196Z,61.07
2016-12-27T01:49:54.104Z,61.14
2016-12-27T01:50:22.073Z,61.04
2016-12-27T01:50:49.916Z,61.33
2016-12-27T01:51:17.736Z,61.82
2016-12-27T01:51:45.530Z,61.43
2016-12-27T01:52:13.325Z,61.53
2016-12-27T01:52:41.109Z,61.92
2016-12-27T01:53:08.916Z,61.72
2016-12-27T01:53:36.701Z,61.72
2016-12-27T01:54:04.547Z,61.43
2016-12-27T01:54:32.632Z,61.43
2016-12-27T01:55:00.425Z,61.43
2016-12-27T01:55:28.231Z,61.53
2016-12-27T01:55:56.033Z,61.63
2016-12-27T01:56:23.826Z,61.33
2016-12-27T01:56:51.623Z,61.33
2016-12-27T01:57:19.390Z,61.92
2016-12-27T01:57:47.223Z,62.02
2016-12-27T01:58:15.061Z,62.02
2016-12-27T01:58:42.908Z,62.21
2016-12-27T01:59:10.729Z,62.79
2016-12-27T01:59:38.788Z,62.6
2016-12-27T02:00:06.564Z,62.5
2016-12-27T02:00:34.364Z,62.6
2016-12-27T02:01:02.263Z,62.7
2016-12-27T02:01:30.056Z,63.18
2016-12-27T02:01:57.841Z,63.38
2016-12-27T02:02:25.641Z,63.25
2016-12-27T02:02:53.453Z,63.09
2016-12-27T02:03:21.243Z,63.38
2016-12-27T02:03:49.011Z,62.79
2016-12-27T02:04:17.000Z,62.99
2016-12-27T02:04:44.838Z,63.28
2016-12-27T02:05:12.651Z,63.18
2016-12-27T02:05:40.443Z,63.06
2016-12-27T02:06:08.213Z,63.15
2016-12-27T02:06:36.094Z,63.25
2016-12-27T02:07:03.924Z,63.48
2016-12-27T02:07:31.741Z,63.45
2016-12-27T02:07:59.560Z,62.96
2016-12-27T02:08:27.321Z,63.25
2016-12-27T02:08:55.095Z,63.28
2016-12-27T02:09:22.964Z,62.96
2016-12-27T02:09:50.695Z,63.18
2016-12-27T02:10:18.490Z,63.18
2016-12-27T02:10:46.279Z,63.28
2016-12-27T02:11:14.091Z,62.99
2016-12-27T02:11:41.915Z,63.18
2016-12-27T02:12:09.699Z,62.99
2016-12-27T02:12:37.565Z,63.09
2016-12-27T02:13:05.355Z,63.48
2016-12-27T02:13:33.129Z,63.57
2016-12-27T02:14:00.966Z,63.28
2016-12-27T02:14:29.050Z,62.99
2016-12-27T02:14:56.798Z,63.18
2016-12-27T02:15:24.591Z,63.18
2016-12-27T02:15:52.346Z,63.09
2016-12-27T02:16:20.159Z,62.89
2016-12-27T02:16:47.957Z,62.99
2016-12-27T02:17:15.882Z,63.09
2016-12-27T02:17:43.723Z,63.18
2016-12-27T02:18:11.497Z,63.09
2016-12-27T02:18:39.322Z,63.28
2016-12-27T02:19:07.104Z,62.79
2016-12-27T02:19:34.983Z,63.18
2016-12-27T02:20:02.757Z,63.18
2016-12-27T02:20:30.573Z,63.09
2016-12-27T02:20:58.391Z,63.18
2016-12-27T02:21:26.179Z,62.99
2016-12-27T02:21:54.067Z,63.28
2016-12-27T02:22:21.865Z,62.99
2016-12-27T02:22:49.587Z,63.57
2016-12-27T02:23:17.374Z,63.18
2016-12-27T02:23:45.142Z,63.38
2016-12-27T02:24:12.886Z,63.28
2016-12-27T02:24:40.952Z,62.79
2016-12-27T02:25:08.835Z,63.28
2016-12-27T02:25:36.675Z,63.57
2016-12-27T02:26:04.556Z,63.74
2016-12-27T02:26:32.355Z,64.45
2016-12-27T02:27:00.101Z,63.93
2016-12-27T02:27:27.945Z,63.96
2016-12-27T02:27:55.748Z,64.32
2016-12-27T02:28:23.614Z,64.32
2016-12-27T02:28:51.501Z,63.93
2016-12-27T02:29:19.276Z,63.74
2016-12-27T02:29:47.259Z,64.23
2016-12-27T02:30:15.085Z,63.64
2016-12-27T02:30:42.849Z,64.42
2016-12-27T02:31:10.667Z,63.93
2016-12-27T02:31:38.435Z,64.03
2016-12-27T02:32:06.200Z,64.03
2016-12-27T02:32:33.947Z,64.03
2016-12-27T02:33:01.697Z,64.03
2016-12-27T02:33:29.542Z,64.23
2016-12-27T02:33:57.319Z,63.74
2016-12-27T02:34:25.169Z,64.03
2016-12-27T02:34:53.317Z,64.13
2016-12-27T02:35:21.133Z,63.54
2016-12-27T02:35:48.915Z,63.93
2016-12-27T02:36:16.707Z,64.03
2016-12-27T02:36:44.520Z,64.16
2016-12-27T02:37:12.343Z,64.16
2016-12-27T02:37:40.119Z,64.03
2016-12-27T02:38:07.901Z,64.13
2016-12-27T02:38:35.712Z,64.13
2016-12-27T02:39:03.516Z,64.06
2016-12-27T02:39:31.366Z,64.52
2016-12-27T02:39:59.245Z,63.93
2016-12-27T02:40:27.048Z,64.72
2016-12-27T02:40:54.853Z,64.62
2016-12-27T02:41:22.627Z,64.23
2016-12-27T02:41:50.410Z,64.91
2016-12-27T02:42:18.289Z,64.23
2016-12-27T02:42:46.086Z,64.62
2016-12-27T02:43:13.921Z,65.11
2016-12-27T02:43:41.720Z,64.52
2016-12-27T02:44:09.520Z,65.01
2016-12-27T02:44:37.346Z,64.72
2016-12-27T02:45:05.320Z,64.52
2016-12-27T02:45:33.047Z,64.81
2016-12-27T02:46:00.831Z,64.91
2016-12-27T02:46:28.646Z,64.91
2016-12-27T02:46:56.518Z,65.56
2016-12-27T02:47:24.350Z,64.62
2016-12-27T02:47:52.163Z,64.72
2016-12-27T02:48:19.965Z,64.72
2016-12-27T02:48:47.801Z,65.01
2016-12-27T02:49:15.590Z,64.42
2016-12-27T02:49:43.357Z,64.91
2016-12-27T02:50:11.253Z,64.81
2016-12-27T02:50:39.044Z,65.01
2016-12-27T02:51:06.922Z,64.52
2016-12-27T02:51:34.713Z,64.23
2016-12-27T02:52:02.485Z,64.72
2016-12-27T02:52:30.281Z,64.91
2016-12-27T02:52:58.043Z,64.72
2016-12-27T02:53:25.840Z,64.62
2016-12-27T02:53:53.598Z,64.72
2016-12-27T02:54:21.362Z,64.81
2016-12-27T02:54:49.169Z,64.72
2016-12-27T02:55:17.367Z,65.01
2016-12-27T02:55:45.157Z,64.72
2016-12-27T02:56:12.910Z,64.62
2016-12-27T02:56:40.661Z,64.91
2016-12-27T02:57:08.475Z,64.81
2016-12-27T02:57:36.283Z,64.91
2016-12-27T02:58:04.101Z,64.62
2016-12-27T02:58:31.875Z,64.62
2016-12-27T02:58:59.883Z,65.2
2016-12-27T02:59:27.734Z,65.69
2016-12-27T02:59:55.936Z,65.59
2016-12-27T03:00:23.917Z,65.56
2016-12-27T03:00:51.821Z,65.56
2016-12-27T03:01:19.630Z,65.56
2016-12-27T03:01:47.359Z,65.66
2016-12-27T03:02:15.645Z,66.14
2016-12-27T03:02:43.399Z,66.05
2016-12-27T03:03:11.227Z,65.95
2016-12-27T03:03:39.024Z,66.05
2016-12-27T03:04:06.913Z,66.24
2016-12-27T03:04:34.733Z,65.95
2016-12-27T03:05:02.609Z,66.05
2016-12-27T03:05:30.400Z,66.44
2016-12-27T03:05:58.188Z,66.34
2016-12-27T03:06:25.998Z,66.83
2016-12-27T03:06:53.787Z,67.12
2016-12-27T03:07:21.575Z,67.12
2016-12-27T03:07:49.364Z,67.02
2016-12-27T03:08:17.112Z,67.22
2016-12-27T03:08:44.867Z,67.41
2016-12-27T03:09:12.725Z,67.12
2016-12-27T03:09:40.515Z,66.73
2016-12-27T03:10:08.564Z,66.53
2016-12-27T03:10:36.312Z,67.12
2016-12-27T03:11:04.084Z,66.63
2016-12-27T03:11:31.856Z,66.93
2016-12-27T03:11:59.669Z,66.05
2016-12-27T03:12:27.415Z,66.24
2016-12-27T03:12:55.163Z,66.44
2016-12-27T03:13:22.945Z,66.53
2016-12-27T03:13:50.690Z,66.05
2016-12-27T03:14:18.482Z,66.34
2016-12-27T03:14:46.250Z,65.95
2016-12-27T03:15:14.160Z,66.34
2016-12-27T03:15:41.999Z,65.95
2016-12-27T03:16:09.815Z,66.05
2016-12-27T03:16:37.560Z,66.24
2016-12-27T03:17:05.372Z,66.34
2016-12-27T03:17:33.142Z,66.83
2016-12-27T03:18:01.013Z,66.73
2016-12-27T03:18:28.814Z,67.22
2016-12-27T03:18:56.588Z,67.02
2016-12-27T03:19:24.437Z,67.02
2016-12-27T03:19:52.233Z,67.02
2016-12-27T03:20:20.322Z,67.41
2016-12-27T03:20:48.097Z,67.32
2016-12-27T03:21:15.926Z,67.22
2016-12-27T03:21:43.704Z,67.32
2016-12-27T03:22:11.496Z,67.32
2016-12-27T03:22:39.338Z,67.22
2016-12-27T03:23:07.136Z,66.63
2016-12-27T03:23:34.928Z,67.02
2016-12-27T03:24:02.692Z,66.73
2016-12-27T03:24:30.516Z,66.73
2016-12-27T03:24:58.304Z,66.83
2016-12-27T03:25:26.303Z,66.44
2016-12-27T03:25:54.063Z,66.14
2016-12-27T03:26:21.921Z,66.05
2016-12-27T03:26:49.752Z,66.83
2016-12-27T03:27:17.566Z,66.53
2016-12-27T03:27:45.327Z,67.12
2016-12-27T03:28:13.114Z,66.5
2016-12-27T03:28:40.906Z,66.63
2016-12-27T03:29:08.670Z,66.83
2016-12-27T03:29:36.567Z,66.63
2016-12-27T03:30:04.337Z,66.83
2016-12-27T03:30:32.309Z,66.05
2016-12-27T03:31:00.106Z,66.05
2016-12-27T03:31:27.903Z,66.44
2016-12-27T03:31:55.690Z,66.14
2016-12-27T03:32:23.483Z,66.44
2016-12-27T03:32:51.295Z,66.53
2016-12-27T03:33:19.066Z,66.44
2016-12-27T03:33:46.801Z,66.14
2016-12-27T03:34:14.605Z,66.53
2016-12-27T03:34:42.474Z,66.44
2016-12-27T03:35:10.367Z,66.05
2016-12-27T03:35:38.390Z,66.34
2016-12-27T03:36:06.218Z,66.05
2016-12-27T03:36:34.009Z,66.44
2016-12-27T03:37:01.805Z,66.99
2016-12-27T03:37:29.686Z,67.38
2016-12-27T03:37:57.477Z,67.28
2016-12-27T03:38:25.307Z,67.38
2016-12-27T03:38:53.062Z,66.99
2016-12-27T03:39:20.866Z,67.18
2016-12-27T03:39:48.672Z,67.28
2016-12-27T03:40:16.429Z,67.08
2016-12-27T03:40:44.332Z,66.6
2016-12-27T03:41:12.117Z,66.93
2016-12-27T03:41:39.888Z,66.31
2016-12-27T03:42:07.663Z,66.99
2016-12-27T03:42:35.450Z,66.6
2016-12-27T03:43:03.249Z,67.08
2016-12-27T03:43:31.058Z,67.38
2016-12-27T03:43:58.881Z,67.77
2016-12-27T03:44:26.726Z,67.77
2016-12-27T03:44:54.535Z,67.47
2016-12-27T03:45:22.301Z,67.67
2016-12-27T03:45:50.234Z,67.67
2016-12-27T03:46:18.035Z,68.26
2016-12-27T03:46:45.871Z,68.26
2016-12-27T03:47:13.678Z,68.26
2016-12-27T03:47:41.416Z,67.86
2016-12-27T03:48:09.212Z,68.35
2016-12-27T03:48:36.949Z,68.26
2016-12-27T03:49:04.742Z,68.26
2016-12-27T03:49:32.581Z,67.47
2016-12-27T03:50:00.385Z,67.57
2016-12-27T03:50:28.186Z,67.47
2016-12-27T03:50:56.164Z,67.28
2016-12-27T03:51:23.955Z,67.38
2016-12-27T03:51:51.704Z,67.18
2016-12-27T03:52:19.479Z,67.18
2016-12-27T03:52:47.271Z,67.28
2016-12-27T03:53:15.050Z,67.28
2016-12-27T03:53:42.842Z,67.47
2016-12-27T03:54:10.653Z,67.67
2016-12-27T03:54:38.421Z,68.35
2016-12-27T03:55:06.219Z,67.67
2016-12-27T03:55:34.001Z,67.38
2016-12-27T03:56:02.082Z,67.38
2016-12-27T03:56:29.836Z,67.08
2016-12-27T03:56:57.626Z,66.41
2016-12-27T03:57:25.424Z,66.79
2016-12-27T03:57:53.235Z,67.08
2016-12-27T03:58:21.027Z,66.31
2016-12-27T03:58:48.805Z,66.11
2016-12-27T03:59:16.662Z,66.21
2016-12-27T03:59:44.430Z,66.41
2016-12-27T04:00:12.241Z,66.02
2016-12-27T04:00:40.059Z,65.43
2016-12-27T04:01:08.175Z,65.63
2016-12-27T04:01:36.002Z,65.43
2016-12-27T04:02:03.773Z,64.94
2016-12-27T04:02:31.545Z,64.55
2016-12-27T04:02:59.315Z,64.94
2016-12-27T04:03:27.109Z,64.75
2016-12-27T04:03:54.949Z,64.07
2016-12-27T04:04:22.748Z,64.07
2016-12-27T04:04:50.528Z,64.07
2016-12-27T04:05:18.348Z,63.97
2016-12-27T04:05:46.434Z,63.87
2016-12-27T04:06:14.232Z,63.97
2016-12-27T04:06:42.001Z,64.17
2016-12-27T04:07:09.865Z,64.36
2016-12-27T04:07:37.668Z,64.36
2016-12-27T04:08:05.432Z,64.26
2016-12-27T04:08:33.207Z,64.07
2016-12-27T04:09:01.002Z,63.58
2016-12-27T04:09:28.850Z,63.39
2016-12-27T04:09:56.622Z,62.9
2016-12-27T04:10:24.395Z,63.19
2016-12-27T04:10:52.402Z,62.99
2016-12-27T04:11:20.164Z,63.19
2016-12-27T04:11:47.940Z,63.78
2016-12-27T04:12:15.685Z,63.39
2016-12-27T04:12:43.418Z,64.17
2016-12-27T04:13:11.203Z,63.58
2016-12-27T04:13:39.002Z,63.19
2016-12-27T04:14:06.768Z,63.19
2016-12-27T04:14:34.484Z,63.09
2016-12-27T04:15:02.217Z,63.19
2016-12-27T04:15:29.988Z,63.09
2016-12-27T04:15:58.058Z,62.99
2016-12-27T04:16:25.827Z,64.55
2016-12-27T04:16:53.662Z,64.65
2016-12-27T04:17:21.480Z,63.97
2016-12-27T04:17:49.241Z,64.26
2016-12-27T04:18:17.036Z,63.65
2016-12-27T04:18:44.776Z,63.35
2016-12-27T04:19:12.541Z,63.06
2016-12-27T04:19:40.325Z,63.19
2016-12-27T04:20:08.124Z,63.19
2016-12-27T04:20:35.907Z,62.51
2016-12-27T04:21:03.900Z,62.51
2016-12-27T04:21:31.692Z,62.51
2016-12-27T04:21:59.525Z,62.02
2016-12-27T04:22:27.325Z,61.93
2016-12-27T04:22:55.131Z,62.51
2016-12-27T04:23:22.973Z,62.6
2016-12-27T04:23:50.751Z,62.51
2016-12-27T04:24:18.594Z,62.7
2016-12-27T04:24:46.366Z,62.7
2016-12-27T04:25:14.183Z,62.51
2016-12-27T04:25:41.969Z,62.12
2016-12-27T04:26:10.037Z,62.12
2016-12-27T04:26:37.856Z,61.54
2016-12-27T04:27:05.681Z,61.99
2016-12-27T04:27:33.478Z,61.83
2016-12-27T04:28:01.253Z,61.93
2016-12-27T04:28:29.044Z,61.44
2016-12-27T04:28:56.843Z,61.7
2016-12-27T04:29:24.654Z,62.09
2016-12-27T04:29:52.454Z,61.7
2016-12-27T04:30:20.226Z,61.93
2016-12-27T04:30:48.019Z,61.44
2016-12-27T04:31:16.192Z,61.63
2016-12-27T04:31:43.990Z,61.54
2016-12-27T04:32:11.823Z,61.24
2016-12-27T04:32:39.642Z,61.24
2016-12-27T04:33:07.407Z,61.54
2016-12-27T04:33:35.174Z,61.41
2016-12-27T04:34:02.960Z,61.34
2016-12-27T04:34:30.741Z,61.54
2016-12-27T04:34:58.459Z,61.83
2016-12-27T04:35:26.249Z,61.54
2016-12-27T04:35:54.062Z,61.6
2016-12-27T04:36:22.082Z,61.9
2016-12-27T04:36:49.878Z,61.41
2016-12-27T04:37:17.662Z,62.19
2016-12-27T04:37:45.432Z,62.57
2016-12-27T04:38:13.269Z,62.19
2016-12-27T04:38:41.010Z,61.99
2016-12-27T04:39:08.777Z,62.19
2016-12-27T04:39:36.562Z,62.19
2016-12-27T04:40:04.313Z,62.67
2016-12-27T04:40:32.132Z,62.77
2016-12-27T04:40:59.943Z,61.99
2016-12-27T04:41:27.955Z,62.09
2016-12-27T04:41:55.719Z,62.19
2016-12-27T04:42:23.495Z,61.8
2016-12-27T04:42:51.265Z,61.9
2016-12-27T04:43:19.028Z,61.8
2016-12-27T04:43:46.831Z,62.19
2016-12-27T04:44:14.597Z,62.09
2016-12-27T04:44:42.368Z,61.9
2016-12-27T04:45:10.207Z,61.7
2016-12-27T04:45:38.011Z,61.8
2016-12-27T04:46:05.757Z,61.9
2016-12-27T04:46:33.623Z,61.41
2016-12-27T04:47:01.454Z,61.63
2016-12-27T04:47:29.227Z,61.6
2016-12-27T04:47:56.977Z,61.6
2016-12-27T04:48:24.885Z,61.9
2016-12-27T04:48:52.630Z,62.09
2016-12-27T04:49:20.390Z,62.77
2016-12-27T04:49:48.214Z,62.67
2016-12-27T04:50:16.030Z,62.38
2016-12-27T04:50:43.819Z,62.57
2016-12-27T04:51:11.580Z,63.06
2016-12-27T04:51:39.484Z,63.16
2016-12-27T04:52:07.311Z,62.77
2016-12-27T04:52:35.057Z,62.84
2016-12-27T04:53:02.870Z,63.23
2016-12-27T04:53:30.683Z,63.32
2016-12-27T04:53:58.477Z,63.81
2016-12-27T04:54:26.262Z,63.81
2016-12-27T04:54:54.057Z,64
2016-12-27T04:55:21.809Z,63.62
2016-12-27T04:55:49.583Z,63.9
2016-12-27T04:56:17.339Z,64
2016-12-27T04:56:45.259Z,64.1
2016-12-27T04:57:12.992Z,63.62
2016-12-27T04:57:40.779Z,64
2016-12-27T04:58:08.674Z,63.9
2016-12-27T04:58:36.427Z,63.9
2016-12-27T04:59:04.224Z,63.9
2016-12-27T04:59:31.997Z,63.9
2016-12-27T04:59:59.735Z,63.71
2016-12-27T05:00:27.533Z,63.71
2016-12-27T05:00:55.345Z,63.9
2016-12-27T05:01:23.144Z,64.04
2016-12-27T05:01:51.138Z,63.94
2016-12-27T05:02:18.963Z,63.81
2016-12-27T05:02:46.787Z,64.04
2016-12-27T05:03:14.564Z,63.75
2016-12-27T05:03:42.349Z,63.94
2016-12-27T05:04:10.167Z,63.94
2016-12-27T05:04:38.059Z,63.65
2016-12-27T05:05:05.805Z,63.94
2016-12-27T05:05:33.572Z,64.04
2016-12-27T05:06:01.333Z,64.1
2016-12-27T05:06:29.114Z,64
2016-12-27T05:06:57.211Z,63.9
2016-12-27T05:07:25.012Z,63.62
2016-12-27T05:07:52.778Z,63.81
2016-12-27T05:08:20.582Z,63.52
2016-12-27T05:08:48.372Z,64.59
2016-12-27T05:09:16.147Z,64.2
2016-12-27T05:09:43.934Z,64.29
2016-12-27T05:10:11.696Z,64.78
2016-12-27T05:10:39.594Z,64.69
2016-12-27T05:11:07.374Z,64.49
2016-12-27T05:11:35.192Z,64.29
2016-12-27T05:12:03.282Z,64.39
2016-12-27T05:12:31.032Z,64.49
2016-12-27T05:12:58.890Z,64.88
2016-12-27T05:13:26.617Z,64.59
2016-12-27T05:13:54.428Z,64.2
2016-12-27T05:14:22.242Z,64.29
2016-12-27T05:14:50.027Z,64.69
2016-12-27T05:15:17.916Z,64.78
2016-12-27T05:15:45.659Z,64.78
2016-12-27T05:16:13.451Z,64.98
2016-12-27T05:16:41.178Z,64.69
2016-12-27T05:17:09.153Z,64.49
2016-12-27T05:17:36.910Z,64.59
2016-12-27T05:18:04.694Z,64.49
2016-12-27T05:18:32.487Z,64.2
2016-12-27T05:19:00.296Z,64.2
2016-12-27T05:19:28.109Z,64.49
2016-12-27T05:19:55.936Z,64.49
2016-12-27T05:20:23.686Z,63.52
2016-12-27T05:20:51.470Z,63.9
2016-12-27T05:21:19.251Z,63.71
2016-12-27T05:21:47.122Z,63.71
2016-12-27T05:22:14.928Z,63.9
2016-12-27T05:22:42.676Z,63.81
2016-12-27T05:23:10.448Z,63.94
2016-12-27T05:23:38.192Z,64
2016-12-27T05:24:06.089Z,63.81
2016-12-27T05:24:33.839Z,63.81
2016-12-27T05:25:01.634Z,63.71
2016-12-27T05:25:29.445Z,64.1
2016-12-27T05:25:57.220Z,64
2016-12-27T05:26:25.044Z,63.9
2016-12-27T05:26:53.162Z,64
2016-12-27T05:27:21.054Z,64
2016-12-27T05:27:48.836Z,64.1
2016-12-27T05:28:16.654Z,64.2
2016-12-27T05:28:44.397Z,64.29
2016-12-27T05:29:12.161Z,64.32
2016-12-27T05:29:39.920Z,63.81
2016-12-27T05:30:07.706Z,63.65
2016-12-27T05:30:35.496Z,64.2
2016-12-27T05:31:03.323Z,63.9
2016-12-27T05:31:31.103Z,63.9
2016-12-27T05:31:59.186Z,64.1
2016-12-27T05:32:26.996Z,63.9
2016-12-27T05:32:54.813Z,63.81
2016-12-27T05:33:22.592Z,64
2016-12-27T05:33:50.382Z,63.81
2016-12-27T05:34:18.136Z,63.9
2016-12-27T05:34:45.891Z,64
2016-12-27T05:35:13.605Z,64
2016-12-27T05:35:41.373Z,63.9
2016-12-27T05:36:09.141Z,64
2016-12-27T05:36:36.870Z,63.81
2016-12-27T05:37:04.882Z,64.1
2016-12-27T05:37:32.691Z,64
2016-12-27T05:38:00.453Z,63.81
2016-12-27T05:38:28.235Z,63.71
2016-12-27T05:38:56.002Z,63.71
2016-12-27T05:39:23.868Z,63.52
2016-12-27T05:39:51.637Z,63.32
2016-12-27T05:40:19.454Z,63.52
2016-12-27T05:40:47.208Z,63.52
2016-12-27T05:41:14.964Z,63.81
2016-12-27T05:41:42.748Z,63.71
2016-12-27T05:42:10.632Z,64.39
2016-12-27T05:42:38.415Z,63.71
2016-12-27T05:43:06.177Z,63.97
2016-12-27T05:43:34.048Z,63.81
2016-12-27T05:44:01.781Z,64.39
2016-12-27T05:44:29.570Z,63.23
2016-12-27T05:44:57.447Z,64.29
2016-12-27T05:45:25.214Z,63.32
2016-12-27T05:45:52.972Z,63.32
2016-12-27T05:46:20.792Z,63.03
2016-12-27T05:46:48.545Z,62.84
2016-12-27T05:47:16.653Z,63.29
2016-12-27T05:47:44.457Z,63.29
2016-12-27T05:48:12.205Z,63.59
2016-12-27T05:48:40.007Z,63.39
2016-12-27T05:49:07.777Z,63.29
2016-12-27T05:49:35.604Z,63.87
2016-12-27T05:50:03.344Z,63.97
2016-12-27T05:50:31.143Z,63.1
2016-12-27T05:50:58.934Z,63.39
2016-12-27T05:51:26.728Z,63.59
2016-12-27T05:51:54.554Z,63.87
2016-12-27T05:52:22.492Z,63.2
2016-12-27T05:52:50.256Z,62.9
2016-12-27T05:53:18.047Z,63.29
2016-12-27T05:53:45.788Z,63.68
2016-12-27T05:54:13.570Z,63.68
2016-12-27T05:54:41.312Z,63.59
2016-12-27T05:55:09.049Z,63
2016-12-27T05:55:36.844Z,63.1
2016-12-27T05:56:04.689Z,63
2016-12-27T05:56:32.460Z,62.81
2016-12-27T05:57:00.229Z,62.51
2016-12-27T05:57:28.290Z,62.51
2016-12-27T05:57:56.059Z,62.51
2016-12-27T05:58:23.890Z,62.61
2016-12-27T05:58:51.666Z,62.51
2016-12-27T05:59:19.445Z,62.32
2016-12-27T05:59:47.214Z,62.51
2016-12-27T06:00:14.985Z,63
2016-12-27T06:00:42.783Z,63
2016-12-27T06:01:10.567Z,62.61